sensor_id;sensor_type;location;lat;lon;timestamp;temperature;humidity
1181;DHT22;579;52.046;8.532;2023-04-24T00:06:27;12.10;1.00
1181;DHT22;579;52.046;8.532;2023-04-24T00:08:58;12.20;1.00
1181;DHT22;579;52.046;8.532;2023-04-24T00:11:25;12.10;1.00
1181;DHT22;579;52.046;8.532;2023-04-24T00:13:51;12.10;1.00
1181;DHT22;579;52.046;8.532;2023-04-24T00:16:17;12.40;1.00
1181;DHT22;579;52.046;8.532;2023-04-24T00:18:43;12.40;1.00
1181;DHT22;579;52.046;8.532;2023-04-24T00:21:10;12.30;1.00
1181;DHT22;579;52.046;8.532;2023-04-24T00:28:24;12.10;1.00
1181;DHT22;579;52.046;8.532;2023-04-24T00:30:50;12.20;1.00
1181;DHT22;579;52.046;8.532;2023-04-24T00:33:16;12.10;1.00
1181;DHT22;579;52.046;8.532;2023-04-24T00:35:43;12.20;1.00
1181;DHT22;579;52.046;8.532;2023-04-24T00:38:09;12.20;1.00
1181;DHT22;579;52.046;8.532;2023-04-24T00:40:35;12.50;1.00
1181;DHT22;579;52.046;8.532;2023-04-24T00:43:02;12.30;1.00
1181;DHT22;579;52.046;8.532;2023-04-24T00:50:42;12.50;1.00
1181;DHT22;579;52.046;8.532;2023-04-24T00:53:08;12.20;1.00
1181;DHT22;579;52.046;8.532;2023-04-24T00:55:34;12.00;1.00
1181;DHT22;579;52.046;8.532;2023-04-24T00:58:02;12.10;1.00
1181;DHT22;579;52.046;8.532;2023-04-24T01:00:29;12.20;1.00
1181;DHT22;579;52.046;8.532;2023-04-24T01:02:58;12.10;1.00
1181;DHT22;579;52.046;8.532;2023-04-24T01:05:26;12.20;1.00
1181;DHT22;579;52.046;8.532;2023-04-24T01:10:26;12.60;1.00
1181;DHT22;579;52.046;8.532;2023-04-24T01:12:53;12.60;1.00
1181;DHT22;579;52.046;8.532;2023-04-24T01:15:19;12.70;1.00
1181;DHT22;579;52.046;8.532;2023-04-24T01:17:46;12.80;1.00
1181;DHT22;579;52.046;8.532;2023-04-24T01:20:12;12.80;1.00
1181;DHT22;579;52.046;8.532;2023-04-24T01:22:40;13.00;1.00
1181;DHT22;579;52.046;8.532;2023-04-24T01:25:07;12.90;1.00
1181;DHT22;579;52.046;8.532;2023-04-24T01:32:37;12.80;1.00
1181;DHT22;579;52.046;8.532;2023-04-24T01:35:06;12.80;1.00
1181;DHT22;579;52.046;8.532;2023-04-24T01:37:33;12.70;1.00
1181;DHT22;579;52.046;8.532;2023-04-24T01:39:59;12.90;1.00
1181;DHT22;579;52.046;8.532;2023-04-24T01:42:26;13.20;1.00
1181;DHT22;579;52.046;8.532;2023-04-24T01:44:52;13.20;1.00
1181;DHT22;579;52.046;8.532;2023-04-24T01:47:19;13.20;1.00
1181;DHT22;579;52.046;8.532;2023-04-24T01:54:52;13.50;1.00
1181;DHT22;579;52.046;8.532;2023-04-24T01:57:18;12.70;1.00
1181;DHT22;579;52.046;8.532;2023-04-24T01:59:45;12.80;1.00
1181;DHT22;579;52.046;8.532;2023-04-24T02:02:11;12.70;1.00
1181;DHT22;579;52.046;8.532;2023-04-24T02:04:37;12.50;1.00
1181;DHT22;579;52.046;8.532;2023-04-24T02:07:04;12.40;1.00
1181;DHT22;579;52.046;8.532;2023-04-24T02:09:30;12.10;1.00
1181;DHT22;579;52.046;8.532;2023-04-24T02:17:01;11.90;1.00
1181;DHT22;579;52.046;8.532;2023-04-24T02:19:27;11.90;1.00
1181;DHT22;579;52.046;8.532;2023-04-24T02:21:54;11.80;1.00
1181;DHT22;579;52.046;8.532;2023-04-24T02:24:20;11.80;1.00
1181;DHT22;579;52.046;8.532;2023-04-24T02:26:46;11.70;1.00
1181;DHT22;579;52.046;8.532;2023-04-24T02:29:12;11.60;1.00
1181;DHT22;579;52.046;8.532;2023-04-24T02:31:39;11.70;1.00
1181;DHT22;579;52.046;8.532;2023-04-24T02:40:17;12.00;1.00
1181;DHT22;579;52.046;8.532;2023-04-24T02:42:43;11.70;1.00
1181;DHT22;579;52.046;8.532;2023-04-24T02:45:10;11.80;1.00
1181;DHT22;579;52.046;8.532;2023-04-24T02:47:36;11.80;1.00
1181;DHT22;579;52.046;8.532;2023-04-24T02:50:03;11.60;1.00
1181;DHT22;579;52.046;8.532;2023-04-24T02:52:31;11.40;1.00
1181;DHT22;579;52.046;8.532;2023-04-24T02:54:57;11.70;1.00
1181;DHT22;579;52.046;8.532;2023-04-24T03:02:17;11.60;1.00
1181;DHT22;579;52.046;8.532;2023-04-24T03:04:44;11.60;1.00
1181;DHT22;579;52.046;8.532;2023-04-24T03:07:10;11.50;1.00
1181;DHT22;579;52.046;8.532;2023-04-24T03:09:37;11.60;1.00
1181;DHT22;579;52.046;8.532;2023-04-24T03:12:03;11.60;1.00
1181;DHT22;579;52.046;8.532;2023-04-24T03:14:30;11.90;1.00
1181;DHT22;579;52.046;8.532;2023-04-24T03:16:56;11.80;1.00
1181;DHT22;579;52.046;8.532;2023-04-24T03:24:28;11.90;1.00
1181;DHT22;579;52.046;8.532;2023-04-24T03:26:54;12.10;1.00
1181;DHT22;579;52.046;8.532;2023-04-24T03:29:22;12.30;1.00
1181;DHT22;579;52.046;8.532;2023-04-24T03:31:48;12.10;1.00
1181;DHT22;579;52.046;8.532;2023-04-24T03:34:15;12.00;1.00
1181;DHT22;579;52.046;8.532;2023-04-24T03:36:41;12.10;1.00
1181;DHT22;579;52.046;8.532;2023-04-24T03:39:07;12.20;1.00
1181;DHT22;579;52.046;8.532;2023-04-24T03:46:34;12.10;1.00
1181;DHT22;579;52.046;8.532;2023-04-24T03:49:00;12.00;1.00
1181;DHT22;579;52.046;8.532;2023-04-24T03:51:27;12.00;1.00
1181;DHT22;579;52.046;8.532;2023-04-24T03:53:55;12.10;1.00
1181;DHT22;579;52.046;8.532;2023-04-24T03:56:22;12.20;1.00
1181;DHT22;579;52.046;8.532;2023-04-24T03:58:48;12.20;1.00
1181;DHT22;579;52.046;8.532;2023-04-24T04:01:14;12.20;1.00
1181;DHT22;579;52.046;8.532;2023-04-24T04:06:28;12.00;1.00
1181;DHT22;579;52.046;8.532;2023-04-24T04:08:56;11.90;1.00
1181;DHT22;579;52.046;8.532;2023-04-24T04:11:22;11.80;1.00
1181;DHT22;579;52.046;8.532;2023-04-24T04:13:49;11.90;1.00
1181;DHT22;579;52.046;8.532;2023-04-24T04:16:16;11.80;1.00
1181;DHT22;579;52.046;8.532;2023-04-24T04:18:42;11.80;1.00
1181;DHT22;579;52.046;8.532;2023-04-24T04:21:09;11.90;1.00
1181;DHT22;579;52.046;8.532;2023-04-24T04:28:22;12.20;1.00
1181;DHT22;579;52.046;8.532;2023-04-24T04:30:50;12.20;1.00
1181;DHT22;579;52.046;8.532;2023-04-24T04:33:19;11.90;1.00
1181;DHT22;579;52.046;8.532;2023-04-24T04:35:45;11.80;1.00
1181;DHT22;579;52.046;8.532;2023-04-24T04:38:14;11.80;1.00
1181;DHT22;579;52.046;8.532;2023-04-24T04:40:40;12.10;1.00
1181;DHT22;579;52.046;8.532;2023-04-24T04:43:06;11.90;1.00
1181;DHT22;579;52.046;8.532;2023-04-24T04:50:39;11.70;1.00
1181;DHT22;579;52.046;8.532;2023-04-24T04:53:05;11.50;1.00
1181;DHT22;579;52.046;8.532;2023-04-24T04:55:32;11.40;1.00
1181;DHT22;579;52.046;8.532;2023-04-24T04:57:59;11.30;1.00
1181;DHT22;579;52.046;8.532;2023-04-24T05:00:26;11.20;1.00
1181;DHT22;579;52.046;8.532;2023-04-24T05:02:54;11.00;1.00
1181;DHT22;579;52.046;8.532;2023-04-24T05:05:20;10.80;1.00
1181;DHT22;579;52.046;8.532;2023-04-24T05:12:18;10.80;1.00
1181;DHT22;579;52.046;8.532;2023-04-24T05:14:45;10.90;1.00
1181;DHT22;579;52.046;8.532;2023-04-24T05:17:11;10.70;1.00
1181;DHT22;579;52.046;8.532;2023-04-24T05:19:37;10.90;1.00
1181;DHT22;579;52.046;8.532;2023-04-24T05:22:04;10.80;1.00
1181;DHT22;579;52.046;8.532;2023-04-24T05:24:32;10.80;1.00
1181;DHT22;579;52.046;8.532;2023-04-24T05:26:58;10.90;1.00
1181;DHT22;579;52.046;8.532;2023-04-24T05:33:47;10.80;1.00
1181;DHT22;579;52.046;8.532;2023-04-24T05:36:13;11.00;1.00
1181;DHT22;579;52.046;8.532;2023-04-24T05:38:40;11.00;1.00
1181;DHT22;579;52.046;8.532;2023-04-24T05:41:06;10.80;1.00
1181;DHT22;579;52.046;8.532;2023-04-24T05:43:32;10.90;1.00
1181;DHT22;579;52.046;8.532;2023-04-24T05:45:58;11.00;1.00
1181;DHT22;579;52.046;8.532;2023-04-24T05:48:25;10.80;1.00
1181;DHT22;579;52.046;8.532;2023-04-24T05:55:26;11.20;1.00
1181;DHT22;579;52.046;8.532;2023-04-24T05:57:53;11.20;1.00
1181;DHT22;579;52.046;8.532;2023-04-24T06:00:19;11.50;1.00
1181;DHT22;579;52.046;8.532;2023-04-24T06:02:46;11.60;1.00
1181;DHT22;579;52.046;8.532;2023-04-24T06:05:12;11.60;1.00
1181;DHT22;579;52.046;8.532;2023-04-24T06:07:39;11.40;1.00
1181;DHT22;579;52.046;8.532;2023-04-24T06:10:06;11.50;1.00
1181;DHT22;579;52.046;8.532;2023-04-24T06:17:37;11.50;1.00
1181;DHT22;579;52.046;8.532;2023-04-24T06:20:03;11.80;1.00
1181;DHT22;579;52.046;8.532;2023-04-24T06:22:31;11.60;1.00
1181;DHT22;579;52.046;8.532;2023-04-24T06:24:57;11.40;1.00
1181;DHT22;579;52.046;8.532;2023-04-24T06:27:25;11.70;1.00
1181;DHT22;579;52.046;8.532;2023-04-24T06:29:51;11.90;1.00
1181;DHT22;579;52.046;8.532;2023-04-24T06:32:20;11.90;1.00
1181;DHT22;579;52.046;8.532;2023-04-24T06:39:52;11.70;1.00
1181;DHT22;579;52.046;8.532;2023-04-24T06:42:18;11.50;1.00
1181;DHT22;579;52.046;8.532;2023-04-24T06:44:46;11.60;1.00
1181;DHT22;579;52.046;8.532;2023-04-24T06:47:12;11.60;1.00
1181;DHT22;579;52.046;8.532;2023-04-24T06:49:39;11.40;1.00
1181;DHT22;579;52.046;8.532;2023-04-24T06:52:05;11.40;1.00
1181;DHT22;579;52.046;8.532;2023-04-24T06:54:32;11.60;1.00
1181;DHT22;579;52.046;8.532;2023-04-24T07:02:04;11.40;1.00
1181;DHT22;579;52.046;8.532;2023-04-24T07:04:31;11.60;1.00
1181;DHT22;579;52.046;8.532;2023-04-24T07:06:58;11.50;1.00
1181;DHT22;579;52.046;8.532;2023-04-24T07:09:25;11.50;1.00
1181;DHT22;579;52.046;8.532;2023-04-24T07:11:53;11.40;1.00
1181;DHT22;579;52.046;8.532;2023-04-24T07:14:19;11.30;1.00
1181;DHT22;579;52.046;8.532;2023-04-24T07:16:46;11.40;1.00
1181;DHT22;579;52.046;8.532;2023-04-24T07:21:58;11.70;1.00
1181;DHT22;579;52.046;8.532;2023-04-24T07:24:25;11.50;1.00
1181;DHT22;579;52.046;8.532;2023-04-24T07:26:52;11.50;1.00
1181;DHT22;579;52.046;8.532;2023-04-24T07:29:19;11.60;1.00
1181;DHT22;579;52.046;8.532;2023-04-24T07:31:46;11.70;1.00
1181;DHT22;579;52.046;8.532;2023-04-24T07:34:12;11.70;1.00
1181;DHT22;579;52.046;8.532;2023-04-24T07:36:39;11.90;1.00
1181;DHT22;579;52.046;8.532;2023-04-24T07:44:11;11.70;1.00
1181;DHT22;579;52.046;8.532;2023-04-24T07:46:38;11.90;1.00
1181;DHT22;579;52.046;8.532;2023-04-24T07:49:04;12.20;1.00
1181;DHT22;579;52.046;8.532;2023-04-24T07:51:31;12.30;1.00
1181;DHT22;579;52.046;8.532;2023-04-24T07:53:59;12.20;1.00
1181;DHT22;579;52.046;8.532;2023-04-24T07:56:25;12.00;1.00
1181;DHT22;579;52.046;8.532;2023-04-24T07:58:51;12.10;1.00
1181;DHT22;579;52.046;8.532;2023-04-24T08:06:23;11.90;1.00
1181;DHT22;579;52.046;8.532;2023-04-24T08:08:51;11.60;1.00
1181;DHT22;579;52.046;8.532;2023-04-24T08:11:17;11.70;1.00
1181;DHT22;579;52.046;8.532;2023-04-24T08:13:43;11.80;1.00
1181;DHT22;579;52.046;8.532;2023-04-24T08:16:09;11.50;1.00
1181;DHT22;579;52.046;8.532;2023-04-24T08:18:36;11.50;1.00
1181;DHT22;579;52.046;8.532;2023-04-24T08:21:02;11.60;1.00
1181;DHT22;579;52.046;8.532;2023-04-24T08:26:07;11.70;1.00
1181;DHT22;579;52.046;8.532;2023-04-24T08:28:33;12.30;1.00
1181;DHT22;579;52.046;8.532;2023-04-24T08:31:00;12.30;1.00
1181;DHT22;579;52.046;8.532;2023-04-24T08:33:26;12.10;1.00
1181;DHT22;579;52.046;8.532;2023-04-24T08:35:52;12.20;1.00
1181;DHT22;579;52.046;8.532;2023-04-24T08:38:19;12.60;1.00
1181;DHT22;579;52.046;8.532;2023-04-24T08:40:45;12.60;1.00
1181;DHT22;579;52.046;8.532;2023-04-24T08:48:18;13.00;1.00
1181;DHT22;579;52.046;8.532;2023-04-24T08:50:45;13.30;1.00
1181;DHT22;579;52.046;8.532;2023-04-24T08:53:11;13.20;1.00
1181;DHT22;579;52.046;8.532;2023-04-24T08:55:38;13.00;1.00
1181;DHT22;579;52.046;8.532;2023-04-24T08:58:04;12.70;1.00
1181;DHT22;579;52.046;8.532;2023-04-24T09:00:31;12.70;1.00
1181;DHT22;579;52.046;8.532;2023-04-24T09:03:00;12.30;1.00
1181;DHT22;579;52.046;8.532;2023-04-24T09:10:40;12.20;1.00
1181;DHT22;579;52.046;8.532;2023-04-24T09:13:06;11.90;1.00
1181;DHT22;579;52.046;8.532;2023-04-24T09:15:34;11.70;1.00
1181;DHT22;579;52.046;8.532;2023-04-24T09:18:01;11.50;1.00
1181;DHT22;579;52.046;8.532;2023-04-24T09:20:27;11.70;1.00
1181;DHT22;579;52.046;8.532;2023-04-24T09:22:54;11.70;1.00
1181;DHT22;579;52.046;8.532;2023-04-24T09:25:21;12.20;1.00
1181;DHT22;579;52.046;8.532;2023-04-24T09:33:09;12.00;1.00
1181;DHT22;579;52.046;8.532;2023-04-24T09:35:36;12.10;1.00
1181;DHT22;579;52.046;8.532;2023-04-24T09:38:02;11.90;1.00
1181;DHT22;579;52.046;8.532;2023-04-24T09:40:28;11.90;1.00
1181;DHT22;579;52.046;8.532;2023-04-24T09:42:56;11.80;1.00
1181;DHT22;579;52.046;8.532;2023-04-24T09:45:27;11.60;1.00
1181;DHT22;579;52.046;8.532;2023-04-24T09:47:55;11.50;1.00
1181;DHT22;579;52.046;8.532;2023-04-24T09:55:20;11.60;1.00
1181;DHT22;579;52.046;8.532;2023-04-24T09:57:50;11.70;1.00
1181;DHT22;579;52.046;8.532;2023-04-24T10:00:24;11.60;1.00
1181;DHT22;579;52.046;8.532;2023-04-24T10:02:56;11.50;1.00
1181;DHT22;579;52.046;8.532;2023-04-24T10:05:24;11.80;1.00
1181;DHT22;579;52.046;8.532;2023-04-24T10:07:56;11.10;1.00
1181;DHT22;579;52.046;8.532;2023-04-24T10:10:24;11.10;1.00
1181;DHT22;579;52.046;8.532;2023-04-24T10:17:51;11.30;1.00
1181;DHT22;579;52.046;8.532;2023-04-24T10:20:19;11.50;1.00
1181;DHT22;579;52.046;8.532;2023-04-24T10:22:48;11.40;1.00
1181;DHT22;579;52.046;8.532;2023-04-24T10:25:16;11.30;1.00
1181;DHT22;579;52.046;8.532;2023-04-24T10:27:46;11.50;1.00
1181;DHT22;579;52.046;8.532;2023-04-24T10:30:13;11.70;1.00
1181;DHT22;579;52.046;8.532;2023-04-24T10:32:40;12.20;1.00
1181;DHT22;579;52.046;8.532;2023-04-24T10:40:18;12.40;1.00
1181;DHT22;579;52.046;8.532;2023-04-24T10:42:47;12.30;1.00
1181;DHT22;579;52.046;8.532;2023-04-24T10:45:17;12.10;1.00
1181;DHT22;579;52.046;8.532;2023-04-24T10:47:52;11.90;1.00
1181;DHT22;579;52.046;8.532;2023-04-24T10:50:19;11.70;1.00
1181;DHT22;579;52.046;8.532;2023-04-24T10:52:45;11.60;1.00
1181;DHT22;579;52.046;8.532;2023-04-24T10:55:13;11.30;1.00
1181;DHT22;579;52.046;8.532;2023-04-24T11:02:47;11.40;1.00
1181;DHT22;579;52.046;8.532;2023-04-24T11:05:19;11.20;1.00
1181;DHT22;579;52.046;8.532;2023-04-24T11:08:11;10.90;1.00
1181;DHT22;579;52.046;8.532;2023-04-24T11:10:43;10.90;1.00
1181;DHT22;579;52.046;8.532;2023-04-24T11:13:10;10.70;1.00
1181;DHT22;579;52.046;8.532;2023-04-24T11:15:36;10.80;1.00
1181;DHT22;579;52.046;8.532;2023-04-24T11:18:04;10.60;1.00
1181;DHT22;579;52.046;8.532;2023-04-24T11:20:49;10.50;1.00
1181;DHT22;579;52.046;8.532;2023-04-24T11:23:16;10.60;1.00
1181;DHT22;579;52.046;8.532;2023-04-24T11:25:43;10.60;1.00
1181;DHT22;579;52.046;8.532;2023-04-24T11:28:14;10.80;1.00
1181;DHT22;579;52.046;8.532;2023-04-24T11:30:41;10.70;1.00
1181;DHT22;579;52.046;8.532;2023-04-24T11:33:08;10.60;1.00
1181;DHT22;579;52.046;8.532;2023-04-24T11:35:40;10.30;1.00
1181;DHT22;579;52.046;8.532;2023-04-24T11:43:06;10.20;1.00
1181;DHT22;579;52.046;8.532;2023-04-24T11:45:32;10.00;1.00
1181;DHT22;579;52.046;8.532;2023-04-24T11:47:59;9.80;1.00
1181;DHT22;579;52.046;8.532;2023-04-24T11:50:26;9.70;1.00
1181;DHT22;579;52.046;8.532;2023-04-24T11:52:54;9.90;1.00
1181;DHT22;579;52.046;8.532;2023-04-24T11:55:26;10.10;1.00
1181;DHT22;579;52.046;8.532;2023-04-24T11:57:54;10.10;1.00
1181;DHT22;579;52.046;8.532;2023-04-24T12:05:28;9.90;1.00
1181;DHT22;579;52.046;8.532;2023-04-24T12:07:56;10.10;1.00
1181;DHT22;579;52.046;8.532;2023-04-24T12:10:23;10.20;1.00
1181;DHT22;579;52.046;8.532;2023-04-24T12:12:51;10.30;1.00
1181;DHT22;579;52.046;8.532;2023-04-24T12:15:19;10.20;1.00
1181;DHT22;579;52.046;8.532;2023-04-24T12:17:46;10.00;1.00
1181;DHT22;579;52.046;8.532;2023-04-24T12:20:14;10.00;1.00
1181;DHT22;579;52.046;8.532;2023-04-24T12:27:52;9.90;1.00
1181;DHT22;579;52.046;8.532;2023-04-24T12:30:20;9.50;1.00
1181;DHT22;579;52.046;8.532;2023-04-24T12:32:48;9.40;1.00
1181;DHT22;579;52.046;8.532;2023-04-24T12:35:19;9.40;1.00
1181;DHT22;579;52.046;8.532;2023-04-24T12:37:46;9.70;1.00
1181;DHT22;579;52.046;8.532;2023-04-24T12:40:13;9.70;1.00
1181;DHT22;579;52.046;8.532;2023-04-24T12:42:43;9.50;1.00
1181;DHT22;579;52.046;8.532;2023-04-24T12:50:15;9.60;1.00
1181;DHT22;579;52.046;8.532;2023-04-24T12:52:42;9.90;1.00
1181;DHT22;579;52.046;8.532;2023-04-24T12:55:09;9.90;1.00
1181;DHT22;579;52.046;8.532;2023-04-24T12:57:38;9.80;1.00
1181;DHT22;579;52.046;8.532;2023-04-24T13:00:07;9.80;1.00
1181;DHT22;579;52.046;8.532;2023-04-24T13:02:34;9.90;1.00
1181;DHT22;579;52.046;8.532;2023-04-24T13:05:02;10.10;1.00
1181;DHT22;579;52.046;8.532;2023-04-24T13:12:37;10.20;1.00
1181;DHT22;579;52.046;8.532;2023-04-24T13:15:05;10.20;1.00
1181;DHT22;579;52.046;8.532;2023-04-24T13:17:32;9.90;1.00
1181;DHT22;579;52.046;8.532;2023-04-24T13:19:59;9.70;1.00
1181;DHT22;579;52.046;8.532;2023-04-24T13:22:25;9.60;1.00
1181;DHT22;579;52.046;8.532;2023-04-24T13:24:52;9.60;1.00
1181;DHT22;579;52.046;8.532;2023-04-24T13:27:22;9.90;1.00
1181;DHT22;579;52.046;8.532;2023-04-24T13:29:51;9.70;1.00
1181;DHT22;579;52.046;8.532;2023-04-24T13:34:56;10.00;1.00
1181;DHT22;579;52.046;8.532;2023-04-24T13:37:23;9.90;1.00
1181;DHT22;579;52.046;8.532;2023-04-24T13:39:49;9.50;1.00
1181;DHT22;579;52.046;8.532;2023-04-24T13:42:16;9.70;1.00
1181;DHT22;579;52.046;8.532;2023-04-24T13:44:42;9.80;1.00
1181;DHT22;579;52.046;8.532;2023-04-24T13:47:08;9.80;1.00
1181;DHT22;579;52.046;8.532;2023-04-24T13:49:35;9.90;1.00
1181;DHT22;579;52.046;8.532;2023-04-24T13:58:27;10.10;1.00
1181;DHT22;579;52.046;8.532;2023-04-24T14:00:54;9.80;1.00
1181;DHT22;579;52.046;8.532;2023-04-24T14:03:21;10.00;1.00
1181;DHT22;579;52.046;8.532;2023-04-24T14:05:47;10.00;1.00
1181;DHT22;579;52.046;8.532;2023-04-24T14:08:13;10.00;1.00
1181;DHT22;579;52.046;8.532;2023-04-24T14:10:39;10.30;1.00
1181;DHT22;579;52.046;8.532;2023-04-24T14:13:06;10.30;1.00
1181;DHT22;579;52.046;8.532;2023-04-24T14:20:24;10.40;1.00
1181;DHT22;579;52.046;8.532;2023-04-24T14:22:50;10.90;1.00
1181;DHT22;579;52.046;8.532;2023-04-24T14:25:16;10.80;1.00
1181;DHT22;579;52.046;8.532;2023-04-24T14:27:43;10.90;1.00
1181;DHT22;579;52.046;8.532;2023-04-24T14:30:09;11.00;1.00
1181;DHT22;579;52.046;8.532;2023-04-24T14:32:37;10.80;1.00
1181;DHT22;579;52.046;8.532;2023-04-24T14:35:04;11.00;1.00
1181;DHT22;579;52.046;8.532;2023-04-24T14:42:38;11.10;1.00
1181;DHT22;579;52.046;8.532;2023-04-24T14:45:05;10.70;1.00
1181;DHT22;579;52.046;8.532;2023-04-24T14:47:32;10.50;1.00
1181;DHT22;579;52.046;8.532;2023-04-24T14:49:58;10.40;1.00
1181;DHT22;579;52.046;8.532;2023-04-24T14:52:24;10.50;1.00
1181;DHT22;579;52.046;8.532;2023-04-24T14:54:50;10.10;1.00
1181;DHT22;579;52.046;8.532;2023-04-24T14:57:17;10.00;1.00
1181;DHT22;579;52.046;8.532;2023-04-24T15:04:44;10.00;1.00
1181;DHT22;579;52.046;8.532;2023-04-24T15:07:10;10.30;1.00
1181;DHT22;579;52.046;8.532;2023-04-24T15:09:36;10.40;1.00
1181;DHT22;579;52.046;8.532;2023-04-24T15:12:03;10.30;1.00
1181;DHT22;579;52.046;8.532;2023-04-24T15:14:29;10.20;1.00
1181;DHT22;579;52.046;8.532;2023-04-24T15:16:56;10.70;1.00
1181;DHT22;579;52.046;8.532;2023-04-24T15:19:22;10.60;1.00
1181;DHT22;579;52.046;8.532;2023-04-24T15:24:28;10.70;1.00
1181;DHT22;579;52.046;8.532;2023-04-24T15:26:55;10.60;1.00
1181;DHT22;579;52.046;8.532;2023-04-24T15:29:21;10.70;1.00
1181;DHT22;579;52.046;8.532;2023-04-24T15:31:47;10.70;1.00
1181;DHT22;579;52.046;8.532;2023-04-24T15:34:19;10.50;1.00
1181;DHT22;579;52.046;8.532;2023-04-24T15:36:45;10.30;1.00
1181;DHT22;579;52.046;8.532;2023-04-24T15:39:11;10.40;1.00
1181;DHT22;579;52.046;8.532;2023-04-24T15:45:56;10.30;1.00
1181;DHT22;579;52.046;8.532;2023-04-24T15:48:23;10.00;1.00
1181;DHT22;579;52.046;8.532;2023-04-24T15:50:49;9.90;1.00
1181;DHT22;579;52.046;8.532;2023-04-24T15:53:15;10.00;1.00
1181;DHT22;579;52.046;8.532;2023-04-24T15:55:46;10.00;1.00
1181;DHT22;579;52.046;8.532;2023-04-24T15:58:12;9.80;1.00
1181;DHT22;579;52.046;8.532;2023-04-24T16:00:39;10.00;1.00
1181;DHT22;579;52.046;8.532;2023-04-24T16:08:11;10.40;1.00
1181;DHT22;579;52.046;8.532;2023-04-24T16:10:41;10.90;1.00
1181;DHT22;579;52.046;8.532;2023-04-24T16:13:08;10.80;1.00
1181;DHT22;579;52.046;8.532;2023-04-24T16:15:35;10.80;1.00
1181;DHT22;579;52.046;8.532;2023-04-24T16:18:01;10.70;1.00
1181;DHT22;579;52.046;8.532;2023-04-24T16:20:28;10.80;1.00
1181;DHT22;579;52.046;8.532;2023-04-24T16:22:54;10.50;1.00
1181;DHT22;579;52.046;8.532;2023-04-24T16:28:51;10.30;1.00
1181;DHT22;579;52.046;8.532;2023-04-24T16:31:18;10.20;1.00
1181;DHT22;579;52.046;8.532;2023-04-24T16:33:44;10.30;1.00
1181;DHT22;579;52.046;8.532;2023-04-24T16:36:10;11.20;1.00
1181;DHT22;579;52.046;8.532;2023-04-24T16:38:38;10.50;1.00
1181;DHT22;579;52.046;8.532;2023-04-24T16:41:04;10.40;1.00
1181;DHT22;579;52.046;8.532;2023-04-24T16:43:30;10.30;1.00
1181;DHT22;579;52.046;8.532;2023-04-24T16:50:50;10.40;1.00
1181;DHT22;579;52.046;8.532;2023-04-24T16:53:16;10.70;1.00
1181;DHT22;579;52.046;8.532;2023-04-24T16:55:42;10.20;1.00
1181;DHT22;579;52.046;8.532;2023-04-24T16:58:09;10.40;1.00
1181;DHT22;579;52.046;8.532;2023-04-24T17:00:35;10.00;1.00
1181;DHT22;579;52.046;8.532;2023-04-24T17:03:03;9.90;1.00
1181;DHT22;579;52.046;8.532;2023-04-24T17:05:29;9.90;1.00
1181;DHT22;579;52.046;8.532;2023-04-24T17:11:50;9.90;1.00
1181;DHT22;579;52.046;8.532;2023-04-24T17:14:16;9.90;1.00
1181;DHT22;579;52.046;8.532;2023-04-24T17:16:43;9.90;1.00
1181;DHT22;579;52.046;8.532;2023-04-24T17:19:11;9.90;1.00
1181;DHT22;579;52.046;8.532;2023-04-24T17:21:37;9.60;1.00
1181;DHT22;579;52.046;8.532;2023-04-24T17:24:04;10.00;1.00
1181;DHT22;579;52.046;8.532;2023-04-24T17:26:30;10.10;1.00
1181;DHT22;579;52.046;8.532;2023-04-24T17:31:48;10.10;1.00
1181;DHT22;579;52.046;8.532;2023-04-24T17:34:15;10.00;1.00
1181;DHT22;579;52.046;8.532;2023-04-24T17:36:41;10.00;1.00
1181;DHT22;579;52.046;8.532;2023-04-24T17:39:08;10.00;1.00
1181;DHT22;579;52.046;8.532;2023-04-24T17:41:34;10.00;1.00
1181;DHT22;579;52.046;8.532;2023-04-24T17:44:01;10.00;1.00
1181;DHT22;579;52.046;8.532;2023-04-24T17:46:27;9.80;1.00
1181;DHT22;579;52.046;8.532;2023-04-24T17:54:13;10.00;1.00
1181;DHT22;579;52.046;8.532;2023-04-24T17:56:39;10.00;1.00
1181;DHT22;579;52.046;8.532;2023-04-24T17:59:06;9.80;1.00
1181;DHT22;579;52.046;8.532;2023-04-24T18:01:35;9.80;1.00
1181;DHT22;579;52.046;8.532;2023-04-24T18:04:01;9.60;1.00
1181;DHT22;579;52.046;8.532;2023-04-24T18:06:28;9.50;1.00
1181;DHT22;579;52.046;8.532;2023-04-24T18:08:54;10.00;1.00
1181;DHT22;579;52.046;8.532;2023-04-24T18:14:53;9.90;1.00
1181;DHT22;579;52.046;8.532;2023-04-24T18:17:19;10.10;1.00
1181;DHT22;579;52.046;8.532;2023-04-24T18:19:49;10.10;1.00
1181;DHT22;579;52.046;8.532;2023-04-24T18:22:15;10.00;1.00
1181;DHT22;579;52.046;8.532;2023-04-24T18:24:41;9.90;1.00
1181;DHT22;579;52.046;8.532;2023-04-24T18:27:08;10.10;1.00
1181;DHT22;579;52.046;8.532;2023-04-24T18:29:35;9.90;1.00
1181;DHT22;579;52.046;8.532;2023-04-24T18:34:36;10.20;1.00
1181;DHT22;579;52.046;8.532;2023-04-24T18:37:03;10.00;1.00
1181;DHT22;579;52.046;8.532;2023-04-24T18:39:29;9.90;1.00
1181;DHT22;579;52.046;8.532;2023-04-24T18:41:56;9.50;1.00
1181;DHT22;579;52.046;8.532;2023-04-24T18:44:23;10.00;1.00
1181;DHT22;579;52.046;8.532;2023-04-24T18:46:51;9.70;1.00
1181;DHT22;579;52.046;8.532;2023-04-24T18:49:17;10.10;1.00
1181;DHT22;579;52.046;8.532;2023-04-24T18:56:48;10.20;1.00
1181;DHT22;579;52.046;8.532;2023-04-24T18:59:16;10.50;1.00
1181;DHT22;579;52.046;8.532;2023-04-24T19:01:46;10.50;1.00
1181;DHT22;579;52.046;8.532;2023-04-24T19:04:12;10.70;1.00
1181;DHT22;579;52.046;8.532;2023-04-24T19:06:38;10.90;1.00
1181;DHT22;579;52.046;8.532;2023-04-24T19:09:05;10.90;1.00
1181;DHT22;579;52.046;8.532;2023-04-24T19:11:31;10.90;1.00
1181;DHT22;579;52.046;8.532;2023-04-24T19:19:03;10.50;1.00
1181;DHT22;579;52.046;8.532;2023-04-24T19:21:30;10.20;1.00
1181;DHT22;579;52.046;8.532;2023-04-24T19:23:57;10.10;1.00
1181;DHT22;579;52.046;8.532;2023-04-24T19:26:24;10.00;1.00
1181;DHT22;579;52.046;8.532;2023-04-24T19:28:52;9.90;1.00
1181;DHT22;579;52.046;8.532;2023-04-24T19:31:22;10.10;1.00
1181;DHT22;579;52.046;8.532;2023-04-24T19:33:48;10.00;1.00
1181;DHT22;579;52.046;8.532;2023-04-24T19:38:54;10.10;1.00
1181;DHT22;579;52.046;8.532;2023-04-24T19:41:20;9.80;1.00
1181;DHT22;579;52.046;8.532;2023-04-24T19:43:46;9.60;1.00
1181;DHT22;579;52.046;8.532;2023-04-24T19:46:14;10.10;1.00
1181;DHT22;579;52.046;8.532;2023-04-24T19:48:40;9.90;1.00
1181;DHT22;579;52.046;8.532;2023-04-24T19:51:07;9.70;1.00
1181;DHT22;579;52.046;8.532;2023-04-24T19:53:33;9.40;1.00
1181;DHT22;579;52.046;8.532;2023-04-24T19:56:00;9.30;1.00
1181;DHT22;579;52.046;8.532;2023-04-24T20:02:52;9.70;1.00
1181;DHT22;579;52.046;8.532;2023-04-24T20:05:18;9.50;1.00
1181;DHT22;579;52.046;8.532;2023-04-24T20:07:45;9.50;1.00
1181;DHT22;579;52.046;8.532;2023-04-24T20:10:11;9.30;1.00
1181;DHT22;579;52.046;8.532;2023-04-24T20:12:37;9.80;1.00
1181;DHT22;579;52.046;8.532;2023-04-24T20:15:04;9.50;1.00
1181;DHT22;579;52.046;8.532;2023-04-24T20:17:31;9.70;1.00
1181;DHT22;579;52.046;8.532;2023-04-24T20:25:05;9.70;1.00
1181;DHT22;579;52.046;8.532;2023-04-24T20:27:32;9.60;1.00
1181;DHT22;579;52.046;8.532;2023-04-24T20:29:58;9.60;1.00
1181;DHT22;579;52.046;8.532;2023-04-24T20:32:25;9.60;1.00
1181;DHT22;579;52.046;8.532;2023-04-24T20:34:51;9.30;1.00
1181;DHT22;579;52.046;8.532;2023-04-24T20:37:18;9.30;1.00
1181;DHT22;579;52.046;8.532;2023-04-24T20:39:45;9.50;1.00
1181;DHT22;579;52.046;8.532;2023-04-24T20:47:15;9.60;1.00
1181;DHT22;579;52.046;8.532;2023-04-24T20:49:41;9.40;1.00
1181;DHT22;579;52.046;8.532;2023-04-24T20:52:07;9.40;1.00
1181;DHT22;579;52.046;8.532;2023-04-24T20:54:34;9.30;1.00
1181;DHT22;579;52.046;8.532;2023-04-24T20:57:00;9.10;1.00